sensor_id;sensor_type;location;lat;lon;timestamp;temperature;humidity
7366;DHT22;3723;52.220;8.792;2023-07-31T00:00:12;14.90;1.00
7366;DHT22;3723;52.220;8.792;2023-07-31T00:02:41;14.90;1.00
7366;DHT22;3723;52.220;8.792;2023-07-31T00:05:08;14.90;1.00
7366;DHT22;3723;52.220;8.792;2023-07-31T00:07:37;14.90;1.00
7366;DHT22;3723;52.220;8.792;2023-07-31T00:10:04;14.90;1.00
7366;DHT22;3723;52.220;8.792;2023-07-31T00:12:31;14.90;1.00
7366;DHT22;3723;52.220;8.792;2023-07-31T00:14:58;14.90;1.00
7366;DHT22;3723;52.220;8.792;2023-07-31T00:17:25;14.90;1.00
7366;DHT22;3723;52.220;8.792;2023-07-31T00:19:52;14.80;1.00
7366;DHT22;3723;52.220;8.792;2023-07-31T00:22:20;14.90;1.00
7366;DHT22;3723;52.220;8.792;2023-07-31T00:24:49;14.90;1.00
7366;DHT22;3723;52.220;8.792;2023-07-31T00:27:16;14.90;1.00
7366;DHT22;3723;52.220;8.792;2023-07-31T00:29:43;14.90;1.00
7366;DHT22;3723;52.220;8.792;2023-07-31T00:32:09;14.90;1.00
7366;DHT22;3723;52.220;8.792;2023-07-31T00:34:37;14.90;1.00
7366;DHT22;3723;52.220;8.792;2023-07-31T00:37:05;14.90;1.00
7366;DHT22;3723;52.220;8.792;2023-07-31T00:39:34;14.80;1.00
7366;DHT22;3723;52.220;8.792;2023-07-31T00:42:02;14.80;1.00
7366;DHT22;3723;52.220;8.792;2023-07-31T00:44:29;14.80;1.00
7366;DHT22;3723;52.220;8.792;2023-07-31T00:46:56;14.90;1.00
7366;DHT22;3723;52.220;8.792;2023-07-31T00:49:25;14.90;1.00
7366;DHT22;3723;52.220;8.792;2023-07-31T00:51:52;14.90;1.00
7366;DHT22;3723;52.220;8.792;2023-07-31T00:54:20;14.90;1.00
7366;DHT22;3723;52.220;8.792;2023-07-31T00:56:47;14.90;1.00
7366;DHT22;3723;52.220;8.792;2023-07-31T00:59:16;15.00;1.00
7366;DHT22;3723;52.220;8.792;2023-07-31T01:01:44;15.00;1.00
7366;DHT22;3723;52.220;8.792;2023-07-31T01:04:11;14.90;1.00
7366;DHT22;3723;52.220;8.792;2023-07-31T01:06:44;14.90;1.00
7366;DHT22;3723;52.220;8.792;2023-07-31T01:09:19;15.00;1.00
7366;DHT22;3723;52.220;8.792;2023-07-31T01:11:50;15.00;1.00
7366;DHT22;3723;52.220;8.792;2023-07-31T01:14:20;15.10;1.00
7366;DHT22;3723;52.220;8.792;2023-07-31T01:16:46;15.10;1.00
7366;DHT22;3723;52.220;8.792;2023-07-31T01:19:14;15.10;1.00
7366;DHT22;3723;52.220;8.792;2023-07-31T01:22:01;15.00;1.00
7366;DHT22;3723;52.220;8.792;2023-07-31T01:24:41;15.10;1.00
7366;DHT22;3723;52.220;8.792;2023-07-31T01:27:14;15.10;1.00
7366;DHT22;3723;52.220;8.792;2023-07-31T01:29:46;15.00;1.00
7366;DHT22;3723;52.220;8.792;2023-07-31T01:32:14;15.10;1.00
7366;DHT22;3723;52.220;8.792;2023-07-31T01:34:44;15.10;1.00
7366;DHT22;3723;52.220;8.792;2023-07-31T01:37:12;15.10;1.00
7366;DHT22;3723;52.220;8.792;2023-07-31T01:39:39;15.00;1.00
7366;DHT22;3723;52.220;8.792;2023-07-31T01:42:06;15.10;1.00
7366;DHT22;3723;52.220;8.792;2023-07-31T01:44:35;15.10;1.00
7366;DHT22;3723;52.220;8.792;2023-07-31T01:47:02;15.00;1.00
7366;DHT22;3723;52.220;8.792;2023-07-31T01:49:28;15.00;1.00
7366;DHT22;3723;52.220;8.792;2023-07-31T01:51:55;15.00;1.00
7366;DHT22;3723;52.220;8.792;2023-07-31T01:54:22;15.10;1.00
7366;DHT22;3723;52.220;8.792;2023-07-31T01:56:49;15.10;1.00
7366;DHT22;3723;52.220;8.792;2023-07-31T01:59:16;15.00;1.00
7366;DHT22;3723;52.220;8.792;2023-07-31T02:01:44;15.00;1.00
7366;DHT22;3723;52.220;8.792;2023-07-31T02:04:11;14.90;1.00
7366;DHT22;3723;52.220;8.792;2023-07-31T02:06:38;14.90;1.00
7366;DHT22;3723;52.220;8.792;2023-07-31T02:09:05;14.90;1.00
7366;DHT22;3723;52.220;8.792;2023-07-31T02:11:32;14.90;1.00
7366;DHT22;3723;52.220;8.792;2023-07-31T02:13:59;14.90;1.00
7366;DHT22;3723;52.220;8.792;2023-07-31T02:16:26;14.90;1.00
7366;DHT22;3723;52.220;8.792;2023-07-31T02:18:54;14.80;1.00
7366;DHT22;3723;52.220;8.792;2023-07-31T02:21:21;14.80;1.00
7366;DHT22;3723;52.220;8.792;2023-07-31T02:23:48;14.80;1.00
7366;DHT22;3723;52.220;8.792;2023-07-31T02:26:14;14.70;1.00
7366;DHT22;3723;52.220;8.792;2023-07-31T02:28:41;14.70;1.00
7366;DHT22;3723;52.220;8.792;2023-07-31T02:31:08;14.70;1.00
7366;DHT22;3723;52.220;8.792;2023-07-31T02:33:35;14.70;1.00
7366;DHT22;3723;52.220;8.792;2023-07-31T02:36:04;14.60;1.00
7366;DHT22;3723;52.220;8.792;2023-07-31T02:38:31;14.60;1.00
7366;DHT22;3723;52.220;8.792;2023-07-31T02:40:57;14.50;1.00
7366;DHT22;3723;52.220;8.792;2023-07-31T02:43:24;14.50;1.00
7366;DHT22;3723;52.220;8.792;2023-07-31T02:45:51;14.50;1.00
7366;DHT22;3723;52.220;8.792;2023-07-31T02:48:19;14.50;1.00
7366;DHT22;3723;52.220;8.792;2023-07-31T02:50:48;14.50;1.00
7366;DHT22;3723;52.220;8.792;2023-07-31T02:53:16;14.50;1.00
7366;DHT22;3723;52.220;8.792;2023-07-31T02:55:43;14.40;1.00
7366;DHT22;3723;52.220;8.792;2023-07-31T02:58:10;14.30;1.00
7366;DHT22;3723;52.220;8.792;2023-07-31T03:00:42;14.30;1.00
7366;DHT22;3723;52.220;8.792;2023-07-31T03:03:08;14.30;1.00
7366;DHT22;3723;52.220;8.792;2023-07-31T03:05:35;14.30;1.00
7366;DHT22;3723;52.220;8.792;2023-07-31T03:08:03;14.20;1.00
7366;DHT22;3723;52.220;8.792;2023-07-31T03:10:31;14.20;1.00
7366;DHT22;3723;52.220;8.792;2023-07-31T03:12:58;14.10;1.00
7366;DHT22;3723;52.220;8.792;2023-07-31T03:15:25;14.20;1.00
7366;DHT22;3723;52.220;8.792;2023-07-31T03:17:52;14.20;1.00
7366;DHT22;3723;52.220;8.792;2023-07-31T03:20:18;14.20;1.00
7366;DHT22;3723;52.220;8.792;2023-07-31T03:22:45;14.10;1.00
7366;DHT22;3723;52.220;8.792;2023-07-31T03:25:12;14.20;1.00
7366;DHT22;3723;52.220;8.792;2023-07-31T03:27:41;14.10;1.00
7366;DHT22;3723;52.220;8.792;2023-07-31T03:30:08;14.10;1.00
7366;DHT22;3723;52.220;8.792;2023-07-31T03:32:35;14.10;1.00
7366;DHT22;3723;52.220;8.792;2023-07-31T03:35:02;14.20;1.00
7366;DHT22;3723;52.220;8.792;2023-07-31T03:37:31;14.10;1.00
7366;DHT22;3723;52.220;8.792;2023-07-31T03:39:57;14.10;1.00
7366;DHT22;3723;52.220;8.792;2023-07-31T03:42:24;14.10;1.00
7366;DHT22;3723;52.220;8.792;2023-07-31T03:44:52;14.10;1.00
7366;DHT22;3723;52.220;8.792;2023-07-31T03:47:19;14.00;1.00
7366;DHT22;3723;52.220;8.792;2023-07-31T03:49:46;14.10;1.00
7366;DHT22;3723;52.220;8.792;2023-07-31T03:52:13;14.10;1.00
7366;DHT22;3723;52.220;8.792;2023-07-31T03:54:40;14.10;1.00
7366;DHT22;3723;52.220;8.792;2023-07-31T03:57:07;14.10;1.00
7366;DHT22;3723;52.220;8.792;2023-07-31T03:59:34;14.10;1.00
7366;DHT22;3723;52.220;8.792;2023-07-31T04:02:02;14.10;1.00
7366;DHT22;3723;52.220;8.792;2023-07-31T04:04:29;14.10;1.00
7366;DHT22;3723;52.220;8.792;2023-07-31T04:06:56;14.20;1.00
7366;DHT22;3723;52.220;8.792;2023-07-31T04:09:23;14.20;1.00
7366;DHT22;3723;52.220;8.792;2023-07-31T04:11:51;14.30;1.00
7366;DHT22;3723;52.220;8.792;2023-07-31T04:14:17;14.40;1.00
7366;DHT22;3723;52.220;8.792;2023-07-31T04:16:44;14.30;1.00
7366;DHT22;3723;52.220;8.792;2023-07-31T04:19:12;14.40;1.00
7366;DHT22;3723;52.220;8.792;2023-07-31T04:21:42;14.50;1.00
7366;DHT22;3723;52.220;8.792;2023-07-31T04:24:09;14.50;1.00
7366;DHT22;3723;52.220;8.792;2023-07-31T04:26:35;14.60;1.00
7366;DHT22;3723;52.220;8.792;2023-07-31T04:29:02;14.60;1.00
7366;DHT22;3723;52.220;8.792;2023-07-31T04:31:29;14.80;1.00
7366;DHT22;3723;52.220;8.792;2023-07-31T04:33:56;14.80;1.00
7366;DHT22;3723;52.220;8.792;2023-07-31T04:36:24;14.80;1.00
7366;DHT22;3723;52.220;8.792;2023-07-31T04:38:51;15.00;1.00
7366;DHT22;3723;52.220;8.792;2023-07-31T04:41:18;15.00;1.00
7366;DHT22;3723;52.220;8.792;2023-07-31T04:43:45;15.10;1.00
7366;DHT22;3723;52.220;8.792;2023-07-31T04:46:12;15.10;1.00
7366;DHT22;3723;52.220;8.792;2023-07-31T04:48:38;15.20;1.00
7366;DHT22;3723;52.220;8.792;2023-07-31T04:51:05;15.20;1.00
7366;DHT22;3723;52.220;8.792;2023-07-31T04:53:34;15.20;1.00
7366;DHT22;3723;52.220;8.792;2023-07-31T04:56:00;15.20;1.00
7366;DHT22;3723;52.220;8.792;2023-07-31T04:58:27;15.30;1.00
7366;DHT22;3723;52.220;8.792;2023-07-31T05:00:54;15.30;1.00
7366;DHT22;3723;52.220;8.792;2023-07-31T05:03:21;15.30;1.00
7366;DHT22;3723;52.220;8.792;2023-07-31T05:05:49;15.30;1.00
7366;DHT22;3723;52.220;8.792;2023-07-31T05:08:16;15.30;1.00
7366;DHT22;3723;52.220;8.792;2023-07-31T05:10:45;15.30;1.00
7366;DHT22;3723;52.220;8.792;2023-07-31T05:13:12;15.40;1.00
7366;DHT22;3723;52.220;8.792;2023-07-31T05:15:39;15.40;1.00
7366;DHT22;3723;52.220;8.792;2023-07-31T05:18:07;15.40;1.00
7366;DHT22;3723;52.220;8.792;2023-07-31T05:20:34;15.40;1.00
7366;DHT22;3723;52.220;8.792;2023-07-31T05:23:01;15.40;1.00
7366;DHT22;3723;52.220;8.792;2023-07-31T05:25:28;15.50;1.00
7366;DHT22;3723;52.220;8.792;2023-07-31T05:27:56;15.40;1.00
7366;DHT22;3723;52.220;8.792;2023-07-31T05:30:23;15.40;1.00
7366;DHT22;3723;52.220;8.792;2023-07-31T05:32:50;15.40;1.00
7366;DHT22;3723;52.220;8.792;2023-07-31T05:35:17;15.40;1.00
7366;DHT22;3723;52.220;8.792;2023-07-31T05:37:44;15.30;1.00
7366;DHT22;3723;52.220;8.792;2023-07-31T05:40:11;15.30;1.00
7366;DHT22;3723;52.220;8.792;2023-07-31T05:42:38;15.30;1.00
7366;DHT22;3723;52.220;8.792;2023-07-31T05:45:07;15.30;1.00
7366;DHT22;3723;52.220;8.792;2023-07-31T05:47:34;15.30;1.00
7366;DHT22;3723;52.220;8.792;2023-07-31T05:50:01;15.30;1.00
7366;DHT22;3723;52.220;8.792;2023-07-31T05:52:28;15.30;1.00
7366;DHT22;3723;52.220;8.792;2023-07-31T05:54:55;15.30;1.00
7366;DHT22;3723;52.220;8.792;2023-07-31T05:57:22;15.20;1.00
7366;DHT22;3723;52.220;8.792;2023-07-31T05:59:49;15.20;1.00
7366;DHT22;3723;52.220;8.792;2023-07-31T06:02:17;15.20;1.00
7366;DHT22;3723;52.220;8.792;2023-07-31T06:04:44;15.10;1.00
7366;DHT22;3723;52.220;8.792;2023-07-31T06:07:14;15.10;1.00
7366;DHT22;3723;52.220;8.792;2023-07-31T06:09:41;15.20;1.00
7366;DHT22;3723;52.220;8.792;2023-07-31T06:12:08;15.10;1.00
7366;DHT22;3723;52.220;8.792;2023-07-31T06:14:35;15.10;1.00
7366;DHT22;3723;52.220;8.792;2023-07-31T06:17:02;15.20;1.00
7366;DHT22;3723;52.220;8.792;2023-07-31T06:19:30;15.20;1.00
7366;DHT22;3723;52.220;8.792;2023-07-31T06:21:57;15.20;1.00
7366;DHT22;3723;52.220;8.792;2023-07-31T06:24:24;15.20;1.00
7366;DHT22;3723;52.220;8.792;2023-07-31T06:26:51;15.30;1.00
7366;DHT22;3723;52.220;8.792;2023-07-31T06:29:18;15.30;1.00
7366;DHT22;3723;52.220;8.792;2023-07-31T06:31:44;15.40;1.00
7366;DHT22;3723;52.220;8.792;2023-07-31T06:34:11;15.40;1.00
7366;DHT22;3723;52.220;8.792;2023-07-31T06:36:40;15.40;1.00
7366;DHT22;3723;52.220;8.792;2023-07-31T06:39:06;15.40;1.00
7366;DHT22;3723;52.220;8.792;2023-07-31T06:41:34;15.50;1.00
7366;DHT22;3723;52.220;8.792;2023-07-31T06:44:01;15.40;1.00
7366;DHT22;3723;52.220;8.792;2023-07-31T06:46:28;15.40;1.00
7366;DHT22;3723;52.220;8.792;2023-07-31T06:48:55;15.40;1.00
7366;DHT22;3723;52.220;8.792;2023-07-31T06:51:22;15.40;1.00
7366;DHT22;3723;52.220;8.792;2023-07-31T06:53:51;15.40;1.00
7366;DHT22;3723;52.220;8.792;2023-07-31T06:56:18;15.40;1.00
7366;DHT22;3723;52.220;8.792;2023-07-31T06:58:46;15.30;1.00
7366;DHT22;3723;52.220;8.792;2023-07-31T07:01:13;15.40;1.00
7366;DHT22;3723;52.220;8.792;2023-07-31T07:03:39;15.40;1.00
7366;DHT22;3723;52.220;8.792;2023-07-31T07:06:06;15.30;1.00
7366;DHT22;3723;52.220;8.792;2023-07-31T07:08:33;15.30;1.00
7366;DHT22;3723;52.220;8.792;2023-07-31T07:11:01;15.30;1.00
7366;DHT22;3723;52.220;8.792;2023-07-31T07:13:29;15.30;1.00
7366;DHT22;3723;52.220;8.792;2023-07-31T07:15:56;15.30;1.00
7366;DHT22;3723;52.220;8.792;2023-07-31T07:18:23;15.50;1.00
7366;DHT22;3723;52.220;8.792;2023-07-31T07:20:50;15.80;1.00
7366;DHT22;3723;52.220;8.792;2023-07-31T07:23:18;16.30;1.00
7366;DHT22;3723;52.220;8.792;2023-07-31T07:25:45;16.50;1.00
7366;DHT22;3723;52.220;8.792;2023-07-31T07:28:14;16.70;1.00
7366;DHT22;3723;52.220;8.792;2023-07-31T07:30:41;16.80;1.00
7366;DHT22;3723;52.220;8.792;2023-07-31T07:33:08;16.90;1.00
7366;DHT22;3723;52.220;8.792;2023-07-31T07:35:35;17.00;1.00
7366;DHT22;3723;52.220;8.792;2023-07-31T07:38:02;17.20;1.00
7366;DHT22;3723;52.220;8.792;2023-07-31T07:40:29;17.40;1.00
7366;DHT22;3723;52.220;8.792;2023-07-31T07:42:56;17.70;1.00
7366;DHT22;3723;52.220;8.792;2023-07-31T07:45:24;17.80;1.00
7366;DHT22;3723;52.220;8.792;2023-07-31T07:47:51;18.00;1.00
7366;DHT22;3723;52.220;8.792;2023-07-31T07:50:18;17.90;99.90
7366;DHT22;3723;52.220;8.792;2023-07-31T07:52:45;17.70;99.90
7366;DHT22;3723;52.220;8.792;2023-07-31T07:55:12;17.40;99.90
7366;DHT22;3723;52.220;8.792;2023-07-31T07:57:39;17.20;99.90
7366;DHT22;3723;52.220;8.792;2023-07-31T08:00:07;17.00;99.90
7366;DHT22;3723;52.220;8.792;2023-07-31T08:02:37;16.80;99.90
7366;DHT22;3723;52.220;8.792;2023-07-31T08:05:04;16.70;99.90
7366;DHT22;3723;52.220;8.792;2023-07-31T08:07:31;16.70;99.90
7366;DHT22;3723;52.220;8.792;2023-07-31T08:09:58;16.60;99.90
7366;DHT22;3723;52.220;8.792;2023-07-31T08:12:25;16.40;99.90
7366;DHT22;3723;52.220;8.792;2023-07-31T08:14:52;16.30;99.90
7366;DHT22;3723;52.220;8.792;2023-07-31T08:17:18;16.20;99.90
7366;DHT22;3723;52.220;8.792;2023-07-31T08:19:47;16.20;1.00
7366;DHT22;3723;52.220;8.792;2023-07-31T08:22:13;16.00;1.00
7366;DHT22;3723;52.220;8.792;2023-07-31T08:24:40;15.90;99.90
7366;DHT22;3723;52.220;8.792;2023-07-31T08:27:07;15.90;1.00
7366;DHT22;3723;52.220;8.792;2023-07-31T08:29:34;16.00;1.00
7366;DHT22;3723;52.220;8.792;2023-07-31T08:32:01;16.10;1.00
7366;DHT22;3723;52.220;8.792;2023-07-31T08:34:28;16.20;1.00
7366;DHT22;3723;52.220;8.792;2023-07-31T08:36:56;16.30;1.00
7366;DHT22;3723;52.220;8.792;2023-07-31T08:39:23;16.40;1.00
7366;DHT22;3723;52.220;8.792;2023-07-31T08:41:50;16.60;1.00
7366;DHT22;3723;52.220;8.792;2023-07-31T08:44:18;16.80;1.00
7366;DHT22;3723;52.220;8.792;2023-07-31T08:46:46;16.80;1.00
7366;DHT22;3723;52.220;8.792;2023-07-31T08:49:14;16.70;1.00
7366;DHT22;3723;52.220;8.792;2023-07-31T08:51:41;16.60;1.00
7366;DHT22;3723;52.220;8.792;2023-07-31T08:54:11;16.60;1.00
7366;DHT22;3723;52.220;8.792;2023-07-31T08:56:39;16.60;1.00
7366;DHT22;3723;52.220;8.792;2023-07-31T08:59:06;16.60;1.00
7366;DHT22;3723;52.220;8.792;2023-07-31T09:01:37;16.60;1.00
7366;DHT22;3723;52.220;8.792;2023-07-31T09:04:09;16.70;1.00
7366;DHT22;3723;52.220;8.792;2023-07-31T09:06:37;16.90;1.00
7366;DHT22;3723;52.220;8.792;2023-07-31T09:09:05;17.10;1.00
7366;DHT22;3723;52.220;8.792;2023-07-31T09:11:33;17.20;1.00
7366;DHT22;3723;52.220;8.792;2023-07-31T09:14:00;17.40;1.00
7366;DHT22;3723;52.220;8.792;2023-07-31T09:16:34;17.30;1.00
7366;DHT22;3723;52.220;8.792;2023-07-31T09:19:01;17.30;1.00
7366;DHT22;3723;52.220;8.792;2023-07-31T09:21:29;17.30;1.00
7366;DHT22;3723;52.220;8.792;2023-07-31T09:23:55;17.40;1.00
7366;DHT22;3723;52.220;8.792;2023-07-31T09:26:29;17.60;1.00
7366;DHT22;3723;52.220;8.792;2023-07-31T09:28:58;17.70;1.00
7366;DHT22;3723;52.220;8.792;2023-07-31T09:31:39;17.70;99.90
7366;DHT22;3723;52.220;8.792;2023-07-31T09:34:07;17.80;99.90
7366;DHT22;3723;52.220;8.792;2023-07-31T09:36:40;17.90;1.00
7366;DHT22;3723;52.220;8.792;2023-07-31T09:39:09;17.90;99.90
7366;DHT22;3723;52.220;8.792;2023-07-31T09:41:39;18.10;99.90
7366;DHT22;3723;52.220;8.792;2023-07-31T09:44:07;18.30;99.90
7366;DHT22;3723;52.220;8.792;2023-07-31T09:46:35;18.30;99.90
7366;DHT22;3723;52.220;8.792;2023-07-31T09:49:07;18.30;99.90
7366;DHT22;3723;52.220;8.792;2023-07-31T09:51:36;18.20;99.90
7366;DHT22;3723;52.220;8.792;2023-07-31T09:54:09;18.20;99.90
7366;DHT22;3723;52.220;8.792;2023-07-31T09:56:41;18.30;99.90
7366;DHT22;3723;52.220;8.792;2023-07-31T09:59:11;18.60;99.90
7366;DHT22;3723;52.220;8.792;2023-07-31T10:04:08;19.10;99.90
7366;DHT22;3723;52.220;8.792;2023-07-31T10:06:36;19.20;99.90
7366;DHT22;3723;52.220;8.792;2023-07-31T10:09:06;19.20;99.90
7366;DHT22;3723;52.220;8.792;2023-07-31T10:11:36;19.30;99.90
7366;DHT22;3723;52.220;8.792;2023-07-31T10:14:05;19.40;99.90
7366;DHT22;3723;52.220;8.792;2023-07-31T10:16:35;19.50;99.90
7366;DHT22;3723;52.220;8.792;2023-07-31T10:19:02;19.40;99.90
7366;DHT22;3723;52.220;8.792;2023-07-31T10:21:31;19.30;99.90
7366;DHT22;3723;52.220;8.792;2023-07-31T10:24:01;19.30;99.90
7366;DHT22;3723;52.220;8.792;2023-07-31T10:26:29;19.30;99.90
7366;DHT22;3723;52.220;8.792;2023-07-31T10:28:58;19.30;99.90
7366;DHT22;3723;52.220;8.792;2023-07-31T10:31:25;19.30;99.90
7366;DHT22;3723;52.220;8.792;2023-07-31T10:33:56;19.30;99.90
7366;DHT22;3723;52.220;8.792;2023-07-31T10:36:23;19.20;99.90
7366;DHT22;3723;52.220;8.792;2023-07-31T10:38:51;19.20;99.90
7366;DHT22;3723;52.220;8.792;2023-07-31T10:41:18;19.00;99.90
7366;DHT22;3723;52.220;8.792;2023-07-31T10:43:46;18.90;99.90
7366;DHT22;3723;52.220;8.792;2023-07-31T10:46:14;18.90;99.90
7366;DHT22;3723;52.220;8.792;2023-07-31T10:48:41;18.80;99.90
7366;DHT22;3723;52.220;8.792;2023-07-31T10:51:11;18.60;99.90
7366;DHT22;3723;52.220;8.792;2023-07-31T10:53:40;18.60;99.90
7366;DHT22;3723;52.220;8.792;2023-07-31T10:56:08;18.50;99.90
7366;DHT22;3723;52.220;8.792;2023-07-31T10:58:36;18.30;99.90
7366;DHT22;3723;52.220;8.792;2023-07-31T11:01:04;18.20;99.90
7366;DHT22;3723;52.220;8.792;2023-07-31T11:03:42;18.10;99.90
7366;DHT22;3723;52.220;8.792;2023-07-31T11:06:10;18.10;99.90
7366;DHT22;3723;52.220;8.792;2023-07-31T11:08:42;18.10;99.90
7366;DHT22;3723;52.220;8.792;2023-07-31T11:11:10;18.10;99.90
7366;DHT22;3723;52.220;8.792;2023-07-31T11:13:42;18.20;99.90
7366;DHT22;3723;52.220;8.792;2023-07-31T11:16:09;18.30;99.90
7366;DHT22;3723;52.220;8.792;2023-07-31T11:18:39;18.30;99.90
7366;DHT22;3723;52.220;8.792;2023-07-31T11:21:06;18.30;99.90
7366;DHT22;3723;52.220;8.792;2023-07-31T11:23:37;18.30;99.90
7366;DHT22;3723;52.220;8.792;2023-07-31T11:26:05;18.20;99.90
7366;DHT22;3723;52.220;8.792;2023-07-31T11:28:33;18.20;99.90
7366;DHT22;3723;52.220;8.792;2023-07-31T11:31:00;18.30;99.90
7366;DHT22;3723;52.220;8.792;2023-07-31T11:33:27;18.40;99.90
7366;DHT22;3723;52.220;8.792;2023-07-31T11:35:54;18.40;99.90
7366;DHT22;3723;52.220;8.792;2023-07-31T11:38:22;18.40;99.90
7366;DHT22;3723;52.220;8.792;2023-07-31T11:40:52;18.40;99.90
7366;DHT22;3723;52.220;8.792;2023-07-31T11:43:20;18.40;99.90
7366;DHT22;3723;52.220;8.792;2023-07-31T11:45:47;18.40;99.90
7366;DHT22;3723;52.220;8.792;2023-07-31T11:48:22;18.40;99.90
7366;DHT22;3723;52.220;8.792;2023-07-31T11:50:50;18.40;99.90
7366;DHT22;3723;52.220;8.792;2023-07-31T11:53:20;18.40;99.90
7366;DHT22;3723;52.220;8.792;2023-07-31T11:55:50;18.40;99.90
7366;DHT22;3723;52.220;8.792;2023-07-31T11:58:18;18.50;99.90
7366;DHT22;3723;52.220;8.792;2023-07-31T12:00:46;18.50;99.90
7366;DHT22;3723;52.220;8.792;2023-07-31T12:03:13;18.50;99.90
7366;DHT22;3723;52.220;8.792;2023-07-31T12:05:40;18.50;99.90
7366;DHT22;3723;52.220;8.792;2023-07-31T12:08:11;18.40;99.90
7366;DHT22;3723;52.220;8.792;2023-07-31T12:10:38;18.40;99.90
7366;DHT22;3723;52.220;8.792;2023-07-31T12:13:09;18.40;99.90
7366;DHT22;3723;52.220;8.792;2023-07-31T12:15:40;18.60;99.90
7366;DHT22;3723;52.220;8.792;2023-07-31T12:18:08;18.80;99.90
7366;DHT22;3723;52.220;8.792;2023-07-31T12:20:41;19.00;99.90
7366;DHT22;3723;52.220;8.792;2023-07-31T12:23:13;19.10;99.90
7366;DHT22;3723;52.220;8.792;2023-07-31T12:25:40;19.20;99.90
7366;DHT22;3723;52.220;8.792;2023-07-31T12:28:09;19.40;99.90
7366;DHT22;3723;52.220;8.792;2023-07-31T12:30:39;19.70;99.90
7366;DHT22;3723;52.220;8.792;2023-07-31T12:33:07;20.20;99.90
7366;DHT22;3723;52.220;8.792;2023-07-31T12:35:41;20.50;99.90
7366;DHT22;3723;52.220;8.792;2023-07-31T12:38:08;20.60;99.90
7366;DHT22;3723;52.220;8.792;2023-07-31T12:40:37;20.60;99.90
7366;DHT22;3723;52.220;8.792;2023-07-31T12:43:04;20.40;99.90
7366;DHT22;3723;52.220;8.792;2023-07-31T12:45:32;20.10;99.90
7366;DHT22;3723;52.220;8.792;2023-07-31T12:47:59;19.90;99.90
7366;DHT22;3723;52.220;8.792;2023-07-31T12:50:26;20.00;99.90
7366;DHT22;3723;52.220;8.792;2023-07-31T12:52:54;20.30;99.90
7366;DHT22;3723;52.220;8.792;2023-07-31T12:55:21;20.40;99.90
7366;DHT22;3723;52.220;8.792;2023-07-31T12:57:51;20.40;99.90
7366;DHT22;3723;52.220;8.792;2023-07-31T13:00:18;20.20;99.90
7366;DHT22;3723;52.220;8.792;2023-07-31T13:02:52;20.10;99.90
7366;DHT22;3723;52.220;8.792;2023-07-31T13:05:20;20.10;99.90
7366;DHT22;3723;52.220;8.792;2023-07-31T13:07:48;20.20;99.90
7366;DHT22;3723;52.220;8.792;2023-07-31T13:10:15;20.00;99.90
7366;DHT22;3723;52.220;8.792;2023-07-31T13:12:44;19.70;99.90
7366;DHT22;3723;52.220;8.792;2023-07-31T13:15:11;19.50;99.90
7366;DHT22;3723;52.220;8.792;2023-07-31T13:17:39;19.30;99.90
7366;DHT22;3723;52.220;8.792;2023-07-31T13:20:08;19.20;99.90
7366;DHT22;3723;52.220;8.792;2023-07-31T13:22:35;19.00;99.90
7366;DHT22;3723;52.220;8.792;2023-07-31T13:25:03;18.90;99.90
7366;DHT22;3723;52.220;8.792;2023-07-31T13:27:30;18.80;99.90
7366;DHT22;3723;52.220;8.792;2023-07-31T13:29:57;18.80;99.90
7366;DHT22;3723;52.220;8.792;2023-07-31T13:32:26;18.80;99.90
7366;DHT22;3723;52.220;8.792;2023-07-31T13:34:53;18.80;99.90
7366;DHT22;3723;52.220;8.792;2023-07-31T13:37:26;18.80;99.90
7366;DHT22;3723;52.220;8.792;2023-07-31T13:39:54;18.60;99.90
7366;DHT22;3723;52.220;8.792;2023-07-31T13:42:21;18.50;99.90
7366;DHT22;3723;52.220;8.792;2023-07-31T13:44:48;18.40;99.90
7366;DHT22;3723;52.220;8.792;2023-07-31T13:47:15;18.40;99.90
7366;DHT22;3723;52.220;8.792;2023-07-31T13:49:42;18.20;99.90
7366;DHT22;3723;52.220;8.792;2023-07-31T13:52:09;18.20;99.90
7366;DHT22;3723;52.220;8.792;2023-07-31T13:54:37;18.30;99.90
7366;DHT22;3723;52.220;8.792;2023-07-31T13:57:05;18.40;99.90
7366;DHT22;3723;52.220;8.792;2023-07-31T13:59:32;18.60;99.90
7366;DHT22;3723;52.220;8.792;2023-07-31T14:02:02;19.10;99.90
7366;DHT22;3723;52.220;8.792;2023-07-31T14:04:29;19.60;99.90
7366;DHT22;3723;52.220;8.792;2023-07-31T14:06:57;20.20;99.90
7366;DHT22;3723;52.220;8.792;2023-07-31T14:09:24;20.60;99.90
7366;DHT22;3723;52.220;8.792;2023-07-31T14:11:52;20.80;99.90
7366;DHT22;3723;52.220;8.792;2023-07-31T14:14:19;21.10;99.90
7366;DHT22;3723;52.220;8.792;2023-07-31T14:16:46;21.60;99.90
7366;DHT22;3723;52.220;8.792;2023-07-31T14:19:13;22.00;99.90
7366;DHT22;3723;52.220;8.792;2023-07-31T14:21:40;22.20;99.90
7366;DHT22;3723;52.220;8.792;2023-07-31T14:24:07;22.20;99.90
7366;DHT22;3723;52.220;8.792;2023-07-31T14:29:02;22.30;99.90
7366;DHT22;3723;52.220;8.792;2023-07-31T14:31:29;22.40;99.90
7366;DHT22;3723;52.220;8.792;2023-07-31T14:33:56;22.30;99.90
7366;DHT22;3723;52.220;8.792;2023-07-31T14:36:23;22.00;99.90
7366;DHT22;3723;52.220;8.792;2023-07-31T14:38:52;21.80;99.90
7366;DHT22;3723;52.220;8.792;2023-07-31T14:41:18;21.60;99.90
7366;DHT22;3723;52.220;8.792;2023-07-31T14:43:45;21.30;99.90
7366;DHT22;3723;52.220;8.792;2023-07-31T14:46:14;20.90;99.90
7366;DHT22;3723;52.220;8.792;2023-07-31T14:48:44;20.50;99.90
7366;DHT22;3723;52.220;8.792;2023-07-31T14:51:10;20.20;99.90
7366;DHT22;3723;52.220;8.792;2023-07-31T14:53:37;20.10;99.90
7366;DHT22;3723;52.220;8.792;2023-07-31T14:56:05;20.10;99.90
7366;DHT22;3723;52.220;8.792;2023-07-31T14:58:32;20.10;99.90
7366;DHT22;3723;52.220;8.792;2023-07-31T15:00:59;20.00;99.90
7366;DHT22;3723;52.220;8.792;2023-07-31T15:03:27;19.90;99.90
7366;DHT22;3723;52.220;8.792;2023-07-31T15:05:54;20.00;99.90
7366;DHT22;3723;52.220;8.792;2023-07-31T15:08:21;20.30;99.90
7366;DHT22;3723;52.220;8.792;2023-07-31T15:10:49;20.70;99.90
7366;DHT22;3723;52.220;8.792;2023-07-31T15:13:16;21.20;99.90
7366;DHT22;3723;52.220;8.792;2023-07-31T15:15:43;21.50;99.90
7366;DHT22;3723;52.220;8.792;2023-07-31T15:18:10;21.60;99.90
7366;DHT22;3723;52.220;8.792;2023-07-31T15:20:38;21.60;99.90
7366;DHT22;3723;52.220;8.792;2023-07-31T15:23:06;21.70;99.90
7366;DHT22;3723;52.220;8.792;2023-07-31T15:25:33;22.00;99.90
7366;DHT22;3723;52.220;8.792;2023-07-31T15:28:01;22.10;99.90
7366;DHT22;3723;52.220;8.792;2023-07-31T15:30:29;22.20;99.90
7366;DHT22;3723;52.220;8.792;2023-07-31T15:32:56;22.20;99.90
7366;DHT22;3723;52.220;8.792;2023-07-31T15:35:23;22.20;99.90
7366;DHT22;3723;52.220;8.792;2023-07-31T15:37:51;22.20;99.90
7366;DHT22;3723;52.220;8.792;2023-07-31T15:40:18;22.10;99.90
7366;DHT22;3723;52.220;8.792;2023-07-31T15:42:48;21.80;99.90
7366;DHT22;3723;52.220;8.792;2023-07-31T15:45:15;21.50;99.90
7366;DHT22;3723;52.220;8.792;2023-07-31T15:47:41;21.10;99.90
7366;DHT22;3723;52.220;8.792;2023-07-31T15:50:09;20.80;99.90
7366;DHT22;3723;52.220;8.792;2023-07-31T15:52:36;20.40;99.90
7366;DHT22;3723;52.220;8.792;2023-07-31T15:55:05;20.20;99.90
7366;DHT22;3723;52.220;8.792;2023-07-31T15:57:32;19.90;99.90
7366;DHT22;3723;52.220;8.792;2023-07-31T16:00:10;19.80;99.90
7366;DHT22;3723;52.220;8.792;2023-07-31T16:02:37;19.90;99.90
7366;DHT22;3723;52.220;8.792;2023-07-31T16:05:04;19.90;99.90
7366;DHT22;3723;52.220;8.792;2023-07-31T16:07:31;20.00;99.90
7366;DHT22;3723;52.220;8.792;2023-07-31T16:09:58;20.00;99.90
7366;DHT22;3723;52.220;8.792;2023-07-31T16:12:26;20.00;99.90
7366;DHT22;3723;52.220;8.792;2023-07-31T16:14:53;20.10;99.90
7366;DHT22;3723;52.220;8.792;2023-07-31T16:17:20;20.00;99.90